Time;durP1;ratioP1;P1;durP2;ratioP2;P2;SDS_P1;SDS_P2;PMS_P1;PMS_P2;Temp;Humidity;BMP_temperature;BMP_pressure;BME280_temperature;BME280_humidity;BME280_pressure;Samples;Min_cycle;Max_cycle;Signal;HPM_P1;HPM_P2
2022/01/11 00:01:15;;;;;;;61.90;29.00;;;0.90;99.90;;;;;;4157254;28;20332;-56
2022/01/11 00:03:18;;;;;;;55.30;26.77;;;0.90;99.90;;;;;;4159989;28;20258;-59
2022/01/11 00:07:23;;;;;;;61.10;28.90;;;0.80;99.90;;;;;;4157771;28;20318;-59
2022/01/11 00:09:34;;;;;;;57.10;29.43;;;0.80;99.90;;;;;;4157120;28;20317;-59
2022/01/11 00:11:35;;;;;;;54.93;26.73;;;0.70;99.90;;;;;;4157400;28;20263;-60
2022/01/11 00:13:38;;;;;;;53.60;26.23;;;0.70;99.90;;;;;;4157678;28;20279;-58
2022/01/11 00:15:40;;;;;;;56.57;25.90;;;0.70;99.90;;;;;;4157167;28;20275;-58
2022/01/11 00:17:41;;;;;;;51.20;23.47;;;0.70;99.90;;;;;;4157302;28;20526;-56
2022/01/11 00:19:43;;;;;;;46.97;23.53;;;0.60;99.90;;;;;;4157156;28;20298;-58
2022/01/11 00:21:47;;;;;;;51.40;25.93;;;0.60;99.90;;;;;;4157332;28;20797;-55
2022/01/11 00:26:08;;;;;;;48.83;23.43;;;0.60;99.90;;;;;;4157497;28;20317;-58
2022/01/11 00:28:10;;;;;;;48.90;24.23;;;0.60;99.90;;;;;;4155288;28;20262;-56
2022/01/11 00:30:11;;;;;;;47.80;22.40;;;0.60;99.90;;;;;;4157411;28;20356;-56
2022/01/11 00:32:16;;;;;;;44.87;21.67;;;0.70;99.90;;;;;;4155273;28;20282;-58
2022/01/11 00:34:20;;;;;;;47.63;23.77;;;0.60;99.90;;;;;;4157698;28;20266;-57
2022/01/11 00:36:21;;;;;;;54.03;25.30;;;0.60;99.90;;;;;;4156576;28;20278;-55
2022/01/11 00:38:22;;;;;;;52.03;24.10;;;0.70;99.90;;;;;;4157646;28;20270;-58
2022/01/11 00:40:24;;;;;;;57.20;26.83;;;0.60;99.90;;;;;;4155925;28;21044;-58
2022/01/11 00:42:25;;;;;;;48.77;24.20;;;0.60;99.90;;;;;;4157662;28;20259;-58
2022/01/11 00:44:26;;;;;;;53.23;26.87;;;0.60;99.90;;;;;;4156660;28;20397;-58
2022/01/11 00:46:27;;;;;;;49.90;23.90;;;0.60;99.90;;;;;;4158048;28;20262;-60
2022/01/11 00:48:29;;;;;;;50.93;25.03;;;0.60;99.90;;;;;;4156825;28;20300;-54
2022/01/11 00:50:32;;;;;;;49.80;25.33;;;0.60;99.90;;;;;;4156722;28;20341;-54
2022/01/11 00:52:33;;;;;;;50.87;24.93;;;0.60;99.90;;;;;;4156118;28;20274;-57
2022/01/11 00:54:35;;;;;;;53.53;26.00;;;0.60;99.90;;;;;;4157106;28;20332;-58
2022/01/11 00:56:36;;;;;;;51.37;24.90;;;0.70;99.90;;;;;;4156677;28;20259;-57
2022/01/11 00:58:37;;;;;;;50.47;25.03;;;0.70;99.90;;;;;;4156673;28;20666;-56
2022/01/11 01:00:38;;;;;;;54.47;24.83;;;0.70;99.90;;;;;;4157088;28;20262;-56
2022/01/11 01:02:41;;;;;;;44.47;22.77;;;0.70;99.90;;;;;;4156624;28;20270;-57
2022/01/11 01:04:42;;;;;;;45.60;21.97;;;0.70;99.90;;;;;;4157027;28;20259;-56
2022/01/11 01:06:45;;;;;;;47.43;22.83;;;0.70;99.90;;;;;;4156325;28;20288;-57
2022/01/11 01:08:46;;;;;;;46.53;23.40;;;0.80;99.90;;;;;;4156464;28;20348;-58
2022/01/11 01:10:48;;;;;;;52.00;23.70;;;0.70;99.90;;;;;;4156158;28;20307;-58
2022/01/11 01:12:51;;;;;;;50.00;23.03;;;0.70;99.90;;;;;;4156583;28;20274;-62
2022/01/11 01:14:52;;;;;;;48.73;24.47;;;0.70;99.90;;;;;;4156836;28;20275;-56
2022/01/11 01:16:54;;;;;;;49.37;23.23;;;0.70;99.90;;;;;;4156957;28;20274;-58
2022/01/11 01:18:55;;;;;;;51.03;25.03;;;0.70;99.90;;;;;;4156374;28;20600;-58
2022/01/11 01:20:56;;;;;;;53.13;25.00;;;0.70;99.90;;;;;;4156339;28;20810;-57
2022/01/11 01:22:58;;;;;;;51.60;25.63;;;0.60;99.90;;;;;;4156201;28;20274;-55
2022/01/11 01:24:59;;;;;;;54.63;25.33;;;0.70;99.90;;;;;;4156393;28;20270;-58
2022/01/11 01:27:00;;;;;;;49.87;24.57;;;0.70;99.90;;;;;;4156969;28;20282;-61
2022/01/11 01:29:02;;;;;;;56.03;25.83;;;0.60;99.90;;;;;;4156089;28;21182;-59
2022/01/11 01:31:04;;;;;;;53.83;25.17;;;0.60;99.90;;;;;;4156633;28;20647;-58
2022/01/11 01:33:06;;;;;;;50.93;25.33;;;0.60;99.90;;;;;;4155939;28;20320;-58
2022/01/11 01:35:07;;;;;;;52.67;25.17;;;0.70;99.90;;;;;;4156615;28;20781;-58
2022/01/11 01:37:09;;;;;;;55.50;28.70;;;0.70;99.90;;;;;;4155626;28;20282;-58
2022/01/11 01:39:10;;;;;;;54.40;26.10;;;0.70;99.90;;;;;;4156325;28;20278;-57
2022/01/11 01:41:17;;;;;;;55.70;25.03;;;0.70;99.90;;;;;;4155112;28;20349;-56
2022/01/11 01:43:18;;;;;;;54.93;25.73;;;0.70;99.90;;;;;;4157018;28;20417;-61
2022/01/11 01:45:23;;;;;;;52.40;25.37;;;0.70;99.90;;;;;;4155681;28;20271;-56
2022/01/11 01:47:24;;;;;;;56.60;26.97;;;0.70;99.90;;;;;;4156721;28;20309;-58
2022/01/11 01:49:26;;;;;;;51.90;26.77;;;0.70;99.90;;;;;;4153731;28;20309;-58
2022/01/11 01:51:29;;;;;;;56.83;27.57;;;0.70;99.90;;;;;;4155891;28;20304;-58
2022/01/11 01:53:33;;;;;;;57.40;26.67;;;0.70;99.90;;;;;;4155473;28;20616;-61
2022/01/11 01:55:34;;;;;;;49.20;24.03;;;0.70;99.90;;;;;;4155602;28;20865;-58
2022/01/11 01:57:36;;;;;;;55.73;26.00;;;0.70;99.90;;;;;;4156008;28;20320;-58
2022/01/11 01:59:37;;;;;;;51.80;25.90;;;0.80;99.90;;;;;;4156140;28;20291;-55
2022/01/11 02:01:45;;;;;;;51.47;24.90;;;0.80;99.90;;;;;;4155767;28;20270;-59
2022/01/11 02:03:46;;;;;;;52.90;26.57;;;0.80;99.90;;;;;;4155558;28;20283;-58
2022/01/11 02:05:48;;;;;;;50.93;24.57;;;0.80;99.90;;;;;;4156606;28;20328;-58
2022/01/11 02:07:49;;;;;;;50.63;24.10;;;0.80;99.90;;;;;;4155461;28;20336;-56
2022/01/11 02:09:50;;;;;;;46.13;23.40;;;0.80;99.90;;;;;;4155508;28;20271;-58
2022/01/11 02:11:51;;;;;;;47.43;23.90;;;0.70;99.90;;;;;;4155517;28;20271;-60
2022/01/11 02:13:52;;;;;;;49.87;25.17;;;0.80;99.90;;;;;;4155998;28;20286;-56
2022/01/11 02:15:55;;;;;;;51.03;24.27;;;0.80;99.90;;;;;;4155228;28;20283;-54
2022/01/11 02:18:27;;;;;;;43.57;22.23;;;0.80;99.90;;;;;;4156652;28;20275;-59
2022/01/11 02:20:28;;;;;;;45.83;22.47;;;0.80;99.90;;;;;;4155151;28;20759;-55
2022/01/11 02:22:29;;;;;;;46.77;21.40;;;0.80;99.90;;;;;;4156206;28;20313;-56
2022/01/11 02:24:33;;;;;;;45.03;21.30;;;0.80;99.90;;;;;;4155304;28;20266;-59
2022/01/11 02:26:34;;;;;;;46.10;23.20;;;0.80;99.90;;;;;;4154428;28;20344;-57
2022/01/11 02:28:35;;;;;;;43.63;21.90;;;0.80;99.90;;;;;;4154976;28;20800;-55
2022/01/11 02:30:37;;;;;;;42.83;22.13;;;0.80;99.90;;;;;;4155955;28;20340;-56
2022/01/11 02:32:51;;;;;;;44.73;20.30;;;0.90;99.90;;;;;;4155468;28;20312;-53
2022/01/11 02:34:52;;;;;;;47.43;20.83;;;0.80;99.90;;;;;;4156308;28;20301;-57
2022/01/11 02:36:53;;;;;;;46.13;22.20;;;0.80;99.90;;;;;;4155347;28;20305;-57
2022/01/11 02:38:55;;;;;;;45.67;21.93;;;0.80;99.90;;;;;;4155623;28;20270;-53
2022/01/11 02:40:57;;;;;;;40.47;20.53;;;0.90;99.90;;;;;;4155022;28;20286;-58
2022/01/11 02:42:58;;;;;;;43.07;21.27;;;0.80;99.90;;;;;;4155570;28;20274;-58
2022/01/11 02:44:59;;;;;;;42.37;21.43;;;0.80;99.90;;;;;;4155736;28;20784;-60
2022/01/11 02:47:00;;;;;;;39.97;19.40;;;0.90;99.90;;;;;;4156007;28;20283;-57
2022/01/11 02:49:01;;;;;;;38.63;19.23;;;0.90;99.90;;;;;;4155737;28;20324;-55
2022/01/11 02:51:04;;;;;;;43.40;21.10;;;0.80;99.90;;;;;;4155367;28;21055;-55
2022/01/11 02:53:05;;;;;;;35.80;18.37;;;0.80;99.90;;;;;;4158948;28;20275;-54
2022/01/11 02:55:12;;;;;;;42.63;21.10;;;0.80;99.90;;;;;;4157939;28;20274;-56
2022/01/11 02:57:13;;;;;;;40.27;19.30;;;0.80;99.90;;;;;;4158990;28;20754;-57
2022/01/11 02:59:14;;;;;;;38.37;19.33;;;0.80;99.90;;;;;;4158029;28;21405;-53
2022/01/11 03:01:15;;;;;;;36.13;18.30;;;0.80;99.90;;;;;;4158919;28;20325;-58
2022/01/11 03:03:23;;;;;;;39.23;19.13;;;0.80;99.90;;;;;;4157952;28;20325;-53
2022/01/11 03:05:24;;;;;;;38.77;17.73;;;0.80;99.90;;;;;;4158579;28;20291;-56
2022/01/11 03:07:25;;;;;;;37.63;18.07;;;0.80;99.90;;;;;;4158425;28;20301;-60
2022/01/11 03:09:32;;;;;;;34.77;16.47;;;0.80;99.90;;;;;;4158917;28;20274;-57
2022/01/11 03:11:34;;;;;;;34.97;16.57;;;0.80;99.90;;;;;;4158291;28;20873;-55
2022/01/11 03:13:38;;;;;;;38.53;17.50;;;0.80;99.90;;;;;;4158107;28;20263;-56
2022/01/11 03:15:40;;;;;;;36.30;16.57;;;0.80;99.90;;;;;;4158333;28;20262;-58
2022/01/11 03:17:41;;;;;;;33.07;17.20;;;0.70;99.90;;;;;;4158198;28;20267;-55
2022/01/11 03:19:42;;;;;;;32.83;15.80;;;0.70;99.90;;;;;;4158584;28;20321;-55
2022/01/11 03:21:44;;;;;;;31.00;15.00;;;0.70;99.90;;;;;;4158280;28;20275;-56
2022/01/11 03:23:45;;;;;;;31.40;16.00;;;0.70;99.90;;;;;;4158242;28;20263;-56
2022/01/11 03:25:47;;;;;;;32.63;15.70;;;0.70;99.90;;;;;;4157796;28;21149;-55
2022/01/11 03:27:48;;;;;;;33.13;16.33;;;0.80;99.90;;;;;;4158065;28;20279;-61
2022/01/11 03:29:51;;;;;;;34.63;17.70;;;0.80;99.90;;;;;;4157874;28;20278;-61
2022/01/11 03:31:52;;;;;;;33.63;16.73;;;0.70;99.90;;;;;;4158324;28;20352;-58
2022/01/11 03:33:53;;;;;;;35.87;17.07;;;0.70;99.90;;;;;;4157354;28;20279;-57
2022/01/11 03:35:55;;;;;;;42.00;16.33;;;0.70;99.90;;;;;;4158331;28;20332;-59
2022/01/11 03:37:56;;;;;;;35.97;17.37;;;0.70;99.90;;;;;;4157090;28;20770;-56
2022/01/11 03:39:57;;;;;;;30.23;16.53;;;0.70;99.90;;;;;;4158066;28;20360;-59
2022/01/11 03:41:58;;;;;;;32.43;16.13;;;0.60;99.90;;;;;;4157777;28;20685;-54
2022/01/11 03:44:00;;;;;;;39.83;17.90;;;0.60;99.90;;;;;;4157582;28;20275;-56
2022/01/11 03:46:01;;;;;;;38.23;17.00;;;0.50;99.90;;;;;;4157581;28;20266;-57
2022/01/11 03:48:04;;;;;;;33.37;16.53;;;0.50;99.90;;;;;;4158063;28;20325;-60
2022/01/11 03:50:07;;;;;;;37.17;17.23;;;0.50;99.90;;;;;;4157662;28;20891;-58
2022/01/11 03:52:08;;;;;;;35.50;17.33;;;0.50;99.90;;;;;;4157604;28;20321;-56
2022/01/11 03:54:13;;;;;;;36.17;17.23;;;0.50;99.90;;;;;;4157849;28;20282;-55
2022/01/11 03:56:26;;;;;;;36.37;15.93;;;0.50;99.90;;;;;;4157273;28;20291;-58
2022/01/11 03:58:29;;;;;;;30.17;16.00;;;0.50;99.90;;;;;;4158229;28;20270;-56
2022/01/11 04:00:30;;;;;;;31.07;15.77;;;0.60;99.90;;;;;;4158010;28;20258;-55
2022/01/11 04:02:31;;;;;;;31.13;15.37;;;0.60;99.90;;;;;;4157391;28;21115;-57
2022/01/11 04:04:32;;;;;;;32.60;15.13;;;0.60;99.90;;;;;;4157550;28;20259;-57
2022/01/11 04:06:33;;;;;;;34.30;16.03;;;0.60;99.90;;;;;;4157827;28;20275;-58
2022/01/11 04:08:34;;;;;;;29.43;14.10;;;0.60;99.90;;;;;;4157080;28;20301;-56
2022/01/11 04:10:36;;;;;;;29.03;13.60;;;0.60;99.90;;;;;;4157621;28;20290;-57
2022/01/11 04:12:37;;;;;;;28.50;14.00;;;0.50;99.90;;;;;;4157047;28;20282;-58
2022/01/11 04:14:38;;;;;;;29.87;12.40;;;0.50;99.90;;;;;;4157514;28;20686;-57
2022/01/11 04:16:39;;;;;;;25.47;11.60;;;0.40;99.90;;;;;;4156787;28;20278;-55
2022/01/11 04:18:40;;;;;;;29.30;13.70;;;0.30;99.90;;;;;;4157738;28;21069;-56
2022/01/11 04:20:42;;;;;;;29.63;13.90;;;0.20;99.90;;;;;;4157140;28;20278;-58
2022/01/11 04:22:43;;;;;;;28.00;12.43;;;0.20;99.90;;;;;;4157319;28;20278;-57
2022/01/11 04:24:44;;;;;;;26.33;13.17;;;0.20;99.90;;;;;;4157187;28;20317;-59
2022/01/11 04:26:46;;;;;;;29.30;15.03;;;0.10;99.90;;;;;;4157262;28;20278;-56
2022/01/11 04:28:48;;;;;;;27.40;13.77;;;0.10;99.90;;;;;;4156877;28;20271;-61
2022/01/11 04:30:59;;;;;;;34.77;17.10;;;0.10;99.90;;;;;;4157085;28;20337;-59
2022/01/11 04:33:01;;;;;;;43.17;21.60;;;0.10;99.90;;;;;;4157128;28;20336;-56
2022/01/11 04:35:03;;;;;;;34.10;16.83;;;0.00;99.90;;;;;;4156834;28;20267;-57
2022/01/11 04:37:05;;;;;;;44.33;19.57;;;0.00;99.90;;;;;;4156967;28;20681;-58
2022/01/11 04:39:11;;;;;;;44.63;20.70;;;-0.10;99.90;;;;;;4156773;28;20275;-57
2022/01/11 04:41:12;;;;;;;57.30;28.13;;;-0.10;99.90;;;;;;4155365;28;20300;-58
2022/01/11 04:43:13;;;;;;;42.10;21.00;;;-0.10;99.90;;;;;;4156435;28;20313;-54
2022/01/11 04:45:15;;;;;;;35.80;18.57;;;-0.10;99.90;;;;;;4157238;28;20766;-57
2022/01/11 04:47:17;;;;;;;27.37;14.07;;;-0.20;99.90;;;;;;4156435;28;20343;-56
2022/01/11 04:49:18;;;;;;;28.87;15.10;;;-0.20;99.90;;;;;;4156890;28;20769;-57
2022/01/11 04:51:20;;;;;;;27.93;14.10;;;-0.20;99.90;;;;;;4155729;28;20345;-56
2022/01/11 04:53:21;;;;;;;28.33;14.33;;;-0.20;99.90;;;;;;4156938;28;20301;-53
2022/01/11 04:55:23;;;;;;;28.53;16.07;;;-0.20;99.90;;;;;;4156055;28;20271;-57
2022/01/11 04:57:24;;;;;;;42.00;21.13;;;-0.20;99.90;;;;;;4156794;28;20259;-56
2022/01/11 04:59:27;;;;;;;28.00;15.53;;;-0.20;99.90;;;;;;4155938;28;20321;-55
2022/01/11 05:01:31;;;;;;;28.53;12.50;;;-0.10;99.90;;;;;;4156132;28;20774;-59
2022/01/11 05:03:32;;;;;;;27.60;14.07;;;-0.20;99.90;;;;;;4156194;28;20990;-56
2022/01/11 05:05:33;;;;;;;32.33;14.00;;;-0.20;99.90;;;;;;4155752;28;20279;-57
2022/01/11 05:07:34;;;;;;;32.43;15.43;;;-0.20;99.90;;;;;;4155908;28;20337;-57
2022/01/11 05:09:36;;;;;;;36.53;15.27;;;-0.10;99.90;;;;;;4156461;28;21298;-54
2022/01/11 05:11:37;;;;;;;33.43;15.27;;;-0.10;99.90;;;;;;4156295;28;20352;-53
2022/01/11 05:13:38;;;;;;;34.47;15.13;;;-0.10;99.90;;;;;;4155584;28;21116;-56
2022/01/11 05:15:39;;;;;;;26.73;12.93;;;-0.10;99.90;;;;;;4155762;28;20309;-57
2022/01/11 05:17:41;;;;;;;31.23;15.33;;;0.00;99.90;;;;;;4155763;28;20258;-54
2022/01/11 05:19:43;;;;;;;35.30;16.27;;;-0.10;99.90;;;;;;4156455;28;20365;-57
2022/01/11 05:21:44;;;;;;;38.70;18.53;;;0.00;99.90;;;;;;4140317;28;20343;-58
2022/01/11 05:23:45;;;;;;;43.23;20.50;;;0.00;99.90;;;;;;4155950;28;20278;-59
2022/01/11 05:25:48;;;;;;;40.60;19.33;;;-0.10;99.90;;;;;;4155457;28;20275;-58
2022/01/11 05:27:49;;;;;;;41.90;16.80;;;-0.10;99.90;;;;;;4155985;28;20275;-56
2022/01/11 05:29:50;;;;;;;35.23;17.87;;;-0.10;99.90;;;;;;4154845;28;20285;-56
2022/01/11 05:31:51;;;;;;;35.00;17.53;;;-0.10;99.90;;;;;;4155753;28;20717;-56
2022/01/11 05:33:52;;;;;;;35.37;18.07;;;0.00;99.90;;;;;;4155822;28;20286;-57
2022/01/11 05:35:53;;;;;;;40.33;20.63;;;0.00;99.90;;;;;;4155617;28;20324;-57
2022/01/11 05:37:54;;;;;;;44.00;24.17;;;0.10;99.90;;;;;;4156178;28;21143;-63
2022/01/11 05:39:56;;;;;;;44.33;22.47;;;0.10;99.90;;;;;;4155713;28;20287;-53
2022/01/11 05:41:59;;;;;;;44.93;23.13;;;0.10;99.90;;;;;;4155855;28;20386;-55
2022/01/11 05:44:00;;;;;;;40.40;20.43;;;0.20;99.90;;;;;;4153761;28;20858;-56
2022/01/11 05:46:03;;;;;;;38.03;20.53;;;0.20;99.90;;;;;;4155818;28;20765;-53
2022/01/11 05:48:05;;;;;;;37.00;18.40;;;0.20;99.90;;;;;;4155346;28;20812;-55
2022/01/11 05:50:09;;;;;;;40.27;17.90;;;0.30;99.90;;;;;;4153614;28;20337;-56
2022/01/11 05:52:10;;;;;;;30.63;17.00;;;0.30;99.90;;;;;;4154549;28;20295;-55
2022/01/11 05:54:11;;;;;;;36.13;17.37;;;0.30;99.90;;;;;;4155462;28;20328;-57
2022/01/11 05:56:12;;;;;;;35.57;17.70;;;0.40;99.90;;;;;;4155066;28;20372;-57
2022/01/11 05:58:13;;;;;;;29.03;15.47;;;0.40;99.90;;;;;;4154938;28;20267;-60
2022/01/11 06:00:18;;;;;;;29.63;13.77;;;0.40;99.90;;;;;;4155151;28;20274;-60
2022/01/11 06:02:20;;;;;;;29.97;14.23;;;0.30;99.90;;;;;;4155053;28;20262;-56
2022/01/11 06:04:21;;;;;;;28.43;14.53;;;0.30;99.90;;;;;;4155099;28;20278;-59
2022/01/11 06:06:22;;;;;;;31.27;15.17;;;0.20;99.90;;;;;;4154967;28;21810;-60
2022/01/11 06:08:23;;;;;;;29.47;15.23;;;0.20;99.90;;;;;;4155339;28;20266;-62
2022/01/11 06:10:24;;;;;;;50.10;24.70;;;0.20;99.90;;;;;;4155039;28;20267;-57
2022/01/11 06:12:25;;;;;;;34.67;15.90;;;0.20;99.90;;;;;;4155360;28;20302;-58
2022/01/11 06:14:26;;;;;;;36.60;18.50;;;0.20;99.90;;;;;;4154445;28;20349;-58
2022/01/11 06:16:28;;;;;;;35.97;16.80;;;0.30;99.90;;;;;;4153715;28;20279;-59
2022/01/11 06:18:29;;;;;;;34.43;15.03;;;0.30;99.90;;;;;;4155381;28;20263;-59
2022/01/11 06:20:31;;;;;;;29.10;14.60;;;0.30;99.90;;;;;;4155827;28;20270;-59
2022/01/11 06:22:32;;;;;;;29.23;14.87;;;0.30;99.90;;;;;;4157488;28;20270;-59
2022/01/11 06:24:33;;;;;;;28.57;15.37;;;0.30;99.90;;;;;;4171876;28;20270;-58
2022/01/11 06:26:34;;;;;;;36.90;17.07;;;0.30;99.90;;;;;;4173228;28;20699;-60
2022/01/11 06:28:35;;;;;;;30.97;14.77;;;0.30;99.90;;;;;;4174260;28;20349;-55
2022/01/11 06:30:36;;;;;;;32.27;14.73;;;0.30;99.90;;;;;;4174706;28;20262;-57
2022/01/11 06:32:38;;;;;;;34.27;15.93;;;0.30;99.90;;;;;;4174593;28;20351;-57
2022/01/11 06:34:39;;;;;;;26.33;14.50;;;0.30;99.90;;;;;;4174841;28;20266;-57
2022/01/11 06:36:41;;;;;;;27.57;14.17;;;0.30;99.90;;;;;;4174475;28;20655;-58
2022/01/11 06:38:42;;;;;;;35.20;15.87;;;0.30;99.90;;;;;;4174971;28;20282;-58
2022/01/11 06:40:44;;;;;;;31.53;16.07;;;0.30;99.90;;;;;;4174680;28;20286;-56
2022/01/11 06:42:46;;;;;;;30.73;15.10;;;0.30;99.90;;;;;;4175125;28;20408;-60
2022/01/11 06:44:47;;;;;;;33.60;17.43;;;0.40;99.90;;;;;;4174688;28;20263;-56
2022/01/11 06:46:48;;;;;;;31.80;16.17;;;0.40;99.90;;;;;;4174851;28;20265;-57
2022/01/11 06:48:53;;;;;;;30.27;15.47;;;0.40;99.90;;;;;;4165504;28;20325;-58
2022/01/11 06:50:54;;;;;;;33.97;15.10;;;0.40;99.90;;;;;;4158102;28;20267;-56
2022/01/11 06:52:55;;;;;;;33.03;15.90;;;0.40;99.90;;;;;;4157707;28;20267;-56
2022/01/11 06:54:56;;;;;;;33.17;16.23;;;0.40;99.90;;;;;;4158230;28;20325;-57
2022/01/11 06:56:57;;;;;;;30.10;15.20;;;0.30;99.90;;;;;;4157700;28;20274;-60
2022/01/11 06:58:58;;;;;;;32.87;15.93;;;0.30;99.90;;;;;;4158472;28;20266;-58
2022/01/11 07:00:59;;;;;;;37.70;19.10;;;0.30;99.90;;;;;;4157543;28;20263;-59
2022/01/11 07:03:00;;;;;;;36.37;17.03;;;0.30;99.90;;;;;;4157837;28;20354;-58
2022/01/11 07:05:02;;;;;;;35.73;17.80;;;0.30;99.90;;;;;;4158458;28;20332;-58
2022/01/11 07:07:05;;;;;;;36.77;17.93;;;0.30;99.90;;;;;;4157226;28;20337;-57
2022/01/11 07:09:06;;;;;;;35.43;17.60;;;0.30;99.90;;;;;;4157445;28;20282;-56
2022/01/11 07:11:08;;;;;;;32.47;15.73;;;0.30;99.90;;;;;;4157532;28;20270;-59
2022/01/11 07:13:09;;;;;;;31.80;16.13;;;0.30;99.90;;;;;;4158018;28;20255;-58
2022/01/11 07:15:11;;;;;;;30.03;15.53;;;0.30;99.90;;;;;;4158106;28;20255;-58
2022/01/11 07:17:12;;;;;;;33.40;17.00;;;0.40;99.90;;;;;;4157861;28;20778;-58
2022/01/11 07:19:13;;;;;;;31.70;16.87;;;0.40;99.90;;;;;;4157854;28;20329;-58
2022/01/11 07:21:14;;;;;;;35.27;16.07;;;0.40;99.90;;;;;;4158301;28;20854;-60
2022/01/11 07:23:15;;;;;;;33.27;16.37;;;0.40;99.90;;;;;;4157493;28;20270;-55
2022/01/11 07:25:16;;;;;;;35.37;17.67;;;0.40;99.90;;;;;;4158197;28;20630;-56
2022/01/11 07:27:17;;;;;;;38.80;17.13;;;0.50;99.90;;;;;;4157478;28;20317;-64
2022/01/11 07:29:19;;;;;;;35.83;16.60;;;0.50;99.90;;;;;;4158087;28;20576;-58
2022/01/11 07:31:21;;;;;;;34.93;16.07;;;0.50;99.90;;;;;;4157252;28;20301;-62
2022/01/11 07:33:22;;;;;;;33.90;18.73;;;0.50;99.90;;;;;;4157602;28;20259;-58
2022/01/11 07:35:24;;;;;;;37.20;17.70;;;0.50;99.90;;;;;;4157458;28;20313;-57
2022/01/11 07:37:25;;;;;;;38.97;17.40;;;0.50;99.90;;;;;;4157176;28;20301;-61
2022/01/11 07:39:26;;;;;;;40.53;19.47;;;0.50;99.90;;;;;;4157786;28;20320;-58
2022/01/11 07:41:27;;;;;;;48.53;21.00;;;0.60;99.90;;;;;;4157491;28;20344;-56
2022/01/11 07:43:28;;;;;;;47.23;23.03;;;0.60;99.90;;;;;;4157680;28;20267;-56
2022/01/11 07:45:30;;;;;;;40.00;18.10;;;0.60;99.90;;;;;;4157212;28;20317;-58
2022/01/11 07:47:31;;;;;;;40.60;19.73;;;0.60;99.90;;;;;;4157651;28;20320;-58
2022/01/11 07:49:32;;;;;;;41.47;20.03;;;0.60;99.90;;;;;;4157236;28;20283;-57
2022/01/11 07:51:33;;;;;;;35.90;18.00;;;0.60;99.90;;;;;;4157386;28;20368;-57
2022/01/11 07:53:34;;;;;;;34.43;17.90;;;0.60;99.90;;;;;;4156655;28;21100;-59
2022/01/11 07:55:36;;;;;;;34.23;18.10;;;0.70;99.90;;;;;;4157674;28;20279;-57
2022/01/11 07:57:37;;;;;;;31.93;16.73;;;0.70;99.90;;;;;;4157049;28;20275;-56
2022/01/11 07:59:38;;;;;;;36.80;18.00;;;0.80;99.90;;;;;;4157377;28;20685;-69
2022/01/11 08:01:40;;;;;;;47.27;20.20;;;0.80;99.90;;;;;;4157016;28;20283;-57
2022/01/11 08:03:41;;;;;;;38.17;17.60;;;0.80;99.90;;;;;;4157495;28;20287;-57
2022/01/11 08:05:42;;;;;;;32.33;16.20;;;0.80;99.90;;;;;;4156709;28;20380;-58
2022/01/11 08:07:44;;;;;;;37.83;18.87;;;0.90;99.90;;;;;;4157171;28;20317;-58
2022/01/11 08:09:46;;;;;;;35.07;17.30;;;1.00;99.90;;;;;;4156672;28;20275;-58
2022/01/11 08:11:49;;;;;;;31.13;17.03;;;1.10;99.90;;;;;;4155721;28;20299;-61
2022/01/11 08:13:51;;;;;;;32.30;16.03;;;1.10;99.90;;;;;;4157135;28;20262;-61
2022/01/11 08:15:52;;;;;;;32.80;16.27;;;1.10;99.90;;;;;;4157008;28;20271;-58
2022/01/11 08:17:53;;;;;;;36.70;18.00;;;1.10;99.90;;;;;;4157756;28;20274;-58
2022/01/11 08:19:54;;;;;;;31.17;17.50;;;1.10;99.90;;;;;;4156961;28;20358;-58
2022/01/11 08:21:56;;;;;;;51.70;22.43;;;1.20;99.90;;;;;;4157057;28;20305;-60
2022/01/11 08:23:57;;;;;;;36.30;16.37;;;1.30;99.90;;;;;;4155319;28;20282;-64
2022/01/11 08:25:59;;;;;;;40.37;15.80;;;1.30;99.90;;;;;;4157007;28;20275;-59
2022/01/11 08:28:00;;;;;;;32.70;15.80;;;1.30;99.90;;;;;;4156032;28;20283;-60
2022/01/11 08:30:03;;;;;;;36.93;15.87;;;1.40;99.90;;;;;;4157260;28;20328;-61
2022/01/11 08:32:04;;;;;;;31.57;15.30;;;1.50;99.90;;;;;;4155802;28;21182;-64
2022/01/11 08:34:11;;;;;;;35.03;17.13;;;1.60;99.90;;;;;;4156858;28;20324;-60
2022/01/11 08:36:12;;;;;;;36.53;18.37;;;1.60;99.90;;;;;;4156433;28;20263;-57
2022/01/11 08:38:13;;;;;;;30.37;15.53;;;1.70;99.90;;;;;;4156723;28;20313;-56
2022/01/11 08:40:15;;;;;;;34.87;16.23;;;1.70;99.90;;;;;;4155927;28;20255;-58
2022/01/11 08:42:16;;;;;;;38.43;17.43;;;1.70;99.90;;;;;;4156671;28;20612;-58
2022/01/11 08:44:22;;;;;;;38.70;17.10;;;1.70;99.90;;;;;;4156539;28;20274;-59
2022/01/11 08:46:23;;;;;;;28.93;14.13;;;1.70;99.90;;;;;;4156610;28;20271;-58
2022/01/11 08:48:24;;;;;;;32.93;14.63;;;1.80;99.90;;;;;;4157007;28;20278;-58
2022/01/11 08:50:26;;;;;;;28.83;13.80;;;1.80;99.90;;;;;;4155763;28;20271;-57
2022/01/11 08:52:28;;;;;;;32.30;14.93;;;1.90;99.90;;;;;;4156665;28;20356;-57
2022/01/11 08:54:30;;;;;;;24.97;13.57;;;1.90;99.90;;;;;;4156535;28;20267;-60
2022/01/11 08:56:32;;;;;;;26.33;12.90;;;2.00;99.90;;;;;;4156213;28;21162;-58
2022/01/11 08:58:33;;;;;;;29.57;14.13;;;2.00;99.90;;;;;;4138948;28;20279;-57
2022/01/11 09:00:34;;;;;;;31.87;11.90;;;2.10;99.90;;;;;;4140562;28;20272;-58
2022/01/11 09:02:37;;;;;;;24.20;11.67;;;2.10;99.90;;;;;;4139699;28;20830;-61
2022/01/11 09:04:38;;;;;;;24.20;10.03;;;2.20;99.90;;;;;;4140306;28;20263;-59
2022/01/11 09:06:39;;;;;;;23.40;11.63;;;2.20;99.90;;;;;;4139453;28;20271;-58
2022/01/11 09:08:41;;;;;;;21.83;10.90;;;2.10;99.90;;;;;;4139934;28;20275;-60
2022/01/11 09:10:42;;;;;;;22.87;12.33;;;2.10;99.90;;;;;;4139345;28;21070;-60
2022/01/11 09:12:43;;;;;;;26.40;13.20;;;2.20;99.90;;;;;;4139561;28;20337;-59
2022/01/11 09:14:45;;;;;;;31.73;14.63;;;2.30;99.90;;;;;;4139509;28;20268;-59
2022/01/11 09:16:46;;;;;;;26.67;12.33;;;2.30;99.90;;;;;;4138908;28;20325;-62
2022/01/11 09:18:48;;;;;;;26.37;13.90;;;2.40;99.90;;;;;;4139188;28;20342;-59
2022/01/11 09:20:50;;;;;;;25.07;13.67;;;2.60;99.90;;;;;;4138960;28;20314;-59
2022/01/11 09:22:51;;;;;;;20.93;10.67;;;2.70;99.90;;;;;;4139575;28;20623;-60
2022/01/11 09:24:53;;;;;;;23.33;11.53;;;2.80;99.90;;;;;;4138846;28;20271;-59
2022/01/11 09:26:58;;;;;;;13.53;7.13;;;2.80;99.90;;;;;;4139523;28;20341;-65
2022/01/11 09:28:59;;;;;;;14.30;7.03;;;2.90;99.90;;;;;;4138444;28;20838;-59
2022/01/11 09:31:00;;;;;;;11.03;5.53;;;2.80;99.90;;;;;;4142336;28;20267;-58
2022/01/11 09:33:01;;;;;;;13.37;6.80;;;2.80;99.90;;;;;;4155264;28;20291;-61
2022/01/11 09:35:05;;;;;;;18.20;7.57;;;2.80;99.90;;;;;;4156268;28;20267;-61
2022/01/11 09:37:08;;;;;;;15.17;7.40;;;3.00;99.90;;;;;;4155350;28;20309;-59
2022/01/11 09:39:09;;;;;;;16.30;7.07;;;3.20;99.90;;;;;;4155606;28;20259;-60
2022/01/11 09:41:11;;;;;;;16.33;7.03;;;3.20;99.90;;;;;;4155067;28;20263;-58
2022/01/11 09:43:13;;;;;;;12.07;6.00;;;3.20;99.90;;;;;;4155068;28;20283;-60
2022/01/11 09:45:14;;;;;;;12.67;6.10;;;3.10;99.90;;;;;;4155092;28;20263;-57
2022/01/11 09:47:16;;;;;;;14.80;6.53;;;3.00;99.90;;;;;;4155077;28;20267;-58
2022/01/11 09:49:17;;;;;;;10.50;4.97;;;3.00;99.90;;;;;;4155225;28;20701;-58
2022/01/11 09:51:20;;;;;;;12.87;6.13;;;3.00;99.90;;;;;;4153739;28;20349;-58
2022/01/11 09:53:21;;;;;;;11.43;5.13;;;3.10;99.90;;;;;;4154558;28;20344;-59
2022/01/11 09:55:22;;;;;;;11.17;4.67;;;3.30;99.90;;;;;;4154908;28;20353;-58
2022/01/11 09:57:23;;;;;;;15.77;5.67;;;3.30;99.90;;;;;;4155184;28;20270;-57
2022/01/11 09:59:24;;;;;;;11.97;5.17;;;3.30;99.90;;;;;;4155004;28;20348;-57
2022/01/11 10:01:26;;;;;;;7.77;4.43;;;3.20;99.90;;;;;;4154909;28;20267;-59
2022/01/11 10:03:27;;;;;;;16.73;4.93;;;3.10;99.90;;;;;;4155201;28;20262;-60
2022/01/11 10:05:28;;;;;;;12.10;5.03;;;3.20;99.90;;;;;;4156012;28;20332;-60
2022/01/11 10:07:32;;;;;;;6.93;4.03;;;3.20;99.90;;;;;;4154717;28;20258;-58
2022/01/11 10:09:43;;;;;;;8.20;4.63;;;3.30;99.90;;;;;;4155455;28;20275;-59
2022/01/11 10:11:48;;;;;;;6.17;3.93;;;3.20;99.90;;;;;;4154784;28;20267;-57
2022/01/11 10:13:49;;;;;;;13.07;5.10;;;3.10;99.90;;;;;;4155434;28;20270;-58
2022/01/11 10:15:50;;;;;;;11.77;4.77;;;3.10;99.90;;;;;;4153390;28;20267;-58
2022/01/11 10:17:51;;;;;;;8.93;4.20;;;3.10;99.90;;;;;;4155502;28;20325;-61
2022/01/11 10:20:04;;;;;;;6.90;4.13;;;3.10;99.90;;;;;;4154792;28;20259;-59
2022/01/11 10:22:09;;;;;;;10.70;4.17;;;2.90;99.90;;;;;;4155309;28;20255;-60
2022/01/11 10:24:35;;;;;;;9.97;3.57;;;2.80;99.90;;;;;;4154086;28;20356;-59
2022/01/11 10:26:43;;;;;;;7.17;3.50;;;2.80;99.90;;;;;;4152344;28;20341;-61
2022/01/11 10:28:44;;;;;;;9.57;4.60;;;2.80;99.90;;;;;;4154950;28;21007;-59
2022/01/11 10:30:46;;;;;;;12.67;5.07;;;2.90;99.90;;;;;;4155613;28;20278;-58
2022/01/11 10:32:49;;;;;;;12.80;5.03;;;2.90;99.90;;;;;;4154219;28;20307;-56